»·PEaware :: TWA124 SKQU-KAMA

TWA124 :: SKQU-KAMA

FLIGHT INFORMATION

Flight Status: Arrived
Operator:
Trans World Airlines
More flights by this operator :: More flights under this callsign
Pilot: Alan J. (5709)
Aircraft: BRITISH AERO BAe-3200 JETSTREAM SUPER 31
(JS32)
More flights by this aircraft type
Origin: SKQU Mariquita
Colombia
Destination: KAMA Amarillo Intl
United States
More flights between these airports :: More routes between these airports
Route: RNG UG447 SPP UA552 PZA UR899 KITIS UA766 KEHLI A766 SBI V194 HUB CDS V114 PNH
File this flight plan on PilotEdge
Remarks: NO IDENT FEATURE ON TRANSPONDER
Altitude:
(Current/Filed)
16,000ft
Speed:
(Current/Filed)
260kts
Departed: 13-May-17 12:53 PM
Arrived: 13-May-17 01:58 PM
Distance/Time
Traveled:
2333nm/1:05
Distance/Time
To Go:
Arrived

Flight Plot

Page will automatically refresh every two minutes.

Flight plan parsing failed; only flown route is shown


Map Options




Map Legend


Flown Route
Filed Route
Departure Airport
Arrival Airport
Navaid (VOR, NDB)
Fix

Horizontal Profiles

Position Reports

Time Latitude Longitude Heading Altitude Ground
Speed
13-May-17 12:43 29.607841 -95.168426 358 30ft 0kts
13-May-17 12:44 29.607841 -95.168426 358 30ft 0kts
13-May-17 12:45 29.607841 -95.168426 358 30ft 0kts
13-May-17 12:46 29.607841 -95.168426 359 30ft 0kts
13-May-17 12:47 29.607841 -95.168426 359 30ft 0kts
13-May-17 12:48 29.607841 -95.168426 358 30ft 0kts
13-May-17 12:49 29.607845 -95.168426 358 30ft 0kts
13-May-17 12:50 29.608089 -95.166493 143 30ft 4kts
13-May-17 12:51 29.603329 -95.166332 179 26ft 26kts
13-May-17 12:52 29.597388 -95.166189 178 26ft 26kts
13-May-17 12:53 29.593735 -95.165268 87 26ft 0kts
13-May-17 12:54 29.594208 -95.163828 357 26ft 0kts
13-May-17 12:55 29.605136 -95.164057 359 97ft 121kts
13-May-17 12:56 29.644495 -95.170586 308 1382ft 166kts
13-May-17 12:57 29.663168 -95.214472 308 3403ft 152kts
13-May-17 12:58 29.691556 -95.250429 318 5026ft 156kts
13-May-17 12:59 29.723587 -95.284114 320 6566ft 158kts
13-May-17 13:00 29.756458 -95.317424 321 7983ft 159kts
13-May-17 13:01 29.789984 -95.351188 320 9356ft 161kts
13-May-17 13:02 29.823790 -95.385239 320 10753ft 163kts
13-May-17 13:03 29.857729 -95.419446 320 12024ft 165kts
13-May-17 13:04 29.892362 -95.454380 320 13203ft 167kts
13-May-17 13:05 29.927376 -95.489730 320 14289ft 169kts
13-May-17 13:06 29.962881 -95.525610 319 15293ft 171kts
13-May-17 13:07 29.998920 -95.562069 319 16022ft 183kts
13-May-17 13:08 30.041049 -95.604750 319 16024ft 215kts
13-May-17 13:09 30.087614 -95.651976 319 16021ft 230kts
13-May-17 13:10 30.136192 -95.701296 319 16027ft 237kts
13-May-17 13:11 30.186072 -95.752012 319 16025ft 240kts
13-May-17 13:12 30.236264 -95.803114 319 16024ft 241kts
13-May-17 13:13 30.286618 -95.854455 319 16026ft 242kts
13-May-17 13:14 30.337048 -95.905946 319 16029ft 242kts
13-May-17 13:15 30.387408 -95.957439 319 16031ft 242kts
13-May-17 13:16 30.437683 -96.008919 319 16032ft 242kts
13-May-17 13:17 30.488090 -96.060609 319 16032ft 242kts
13-May-17 13:18 30.538263 -96.112133 319 16031ft 242kts
13-May-17 13:19 30.588585 -96.163883 319 16032ft 241kts
13-May-17 13:20 30.638766 -96.215563 319 16035ft 241kts
13-May-17 13:21 30.688952 -96.267324 319 16037ft 241kts
13-May-17 13:22 30.738981 -96.318997 319 16039ft 241kts
13-May-17 13:23 30.789118 -96.370858 319 16041ft 241kts
13-May-17 13:24 30.839033 -96.422564 319 16043ft 241kts
13-May-17 13:25 30.889071 -96.474472 319 16047ft 241kts
13-May-17 13:26 30.939057 -96.526402 319 16047ft 241kts
13-May-17 13:27 30.989187 -96.578559 319 16047ft 243kts
13-May-17 13:28 31.039614 -96.631100 319 16047ft 244kts
13-May-17 13:29 31.090092 -96.683770 318 16049ft 245kts
13-May-17 13:30 31.140004 -96.735931 318 16052ft 246kts
13-May-17 13:31 31.190993 -96.789295 318 16056ft 246kts
13-May-17 13:32 31.242094 -96.842859 318 16059ft 247kts
13-May-17 13:33 31.292993 -96.896290 318 16060ft 247kts
13-May-17 13:34 31.343995 -96.949911 318 16060ft 247kts
13-May-17 13:35 31.394972 -97.003583 318 16059ft 247kts
13-May-17 13:36 34.388160 -100.319830 307 16078ft 250kts
13-May-17 13:37 34.430487 -100.387235 307 16078ft 253kts
13-May-17 13:38 34.473073 -100.455450 307 16077ft 254kts
13-May-17 13:39 34.515676 -100.523840 307 16077ft 254kts
13-May-17 13:40 34.557701 -100.591432 307 16077ft 255kts
13-May-17 13:41 34.600317 -100.660105 307 16077ft 255kts
13-May-17 13:42 34.642801 -100.728697 307 16078ft 255kts
13-May-17 13:43 34.685374 -100.797539 305 16050ft 256kts
13-May-17 13:44 34.728108 -100.866797 305 16050ft 256kts
13-May-17 13:45 34.770753 -100.936055 304 16003ft 258kts
13-May-17 13:46 34.813690 -101.005940 304 15359ft 263kts
13-May-17 13:47 34.858148 -101.078450 304 13874ft 271kts
13-May-17 13:48 34.903471 -101.152464 304 12387ft 274kts
13-May-17 13:49 34.949043 -101.227063 303 10897ft 274kts
13-May-17 13:50 34.994272 -101.301277 302 9411ft 273kts
13-May-17 13:51 35.039275 -101.375284 301 7925ft 271kts
13-May-17 13:52 35.083281 -101.447751 301 6997ft 250kts
13-May-17 13:53 35.121878 -101.511471 301 6992ft 222kts
13-May-17 13:54 35.157560 -101.570502 300 6993ft 211kts
13-May-17 13:55 35.190977 -101.620136 332 7099ft 160kts
13-May-17 13:56 35.229172 -101.632987 3 6037ft 143kts
13-May-17 13:57 35.252160 -101.653927 279 4838ft 109kts
13-May-17 13:58 35.244236 -101.683407 219 4047ft 94kts
13-May-17 13:59 35.226316 -101.705936 223 3600ft 57kts
13-May-17 14:00 35.224754 -101.706034 136 3603ft 0kts
13-May-17 14:01 35.222744 -101.703872 179 3602ft 12kts
13-May-17 14:02 35.220525 -101.704624 181 3602ft 0kts
13-May-17 14:03 35.220519 -101.704624 181 3602ft 0kts

Navigation Log

Ident Type
Flight plan parsing failed, navigation log unavailable